< < Back
Terminal Aerodrome Forecast


Current Version              Previous Versions:   1  2  3  4  5  6  7  8  9  

Terminal Aerodrome Forecast

436
FTUS44 KOHX 020800 AAA
TAFCSV
TAF AMD
KCSV 020818Z 0208/0306 29006KT 4SM -RA BR OVC002
     FM020900 36007KT 2SM -RA BR OVC002
     FM021200 35005KT 2SM -DZ BR OVC003
     FM021600 03006KT 4SM BR OVC007
     FM021800 04005KT P6SM OVC025
     FM030000 07003KT 4SM BR OVC015=

Latest METAR

446
SAUS70 KWBC 021600 RRB
MTRCSV
METAR KCSV 021553Z AUTO 03008KT 10SM OVC007 01/M01 A3041 RMK AO2 SLP303
T00111006


USA.gov is the U.S. government's official web portal to all federal, state and local government web resources and services.